sensor_id;sensor_type;location;lat;lon;timestamp;pressure;altitude;pressure_sealevel;temperature;humidity
4085;BME280;2057;50.858;6.572;2023-07-08T00:00:21;100404.78;;;22.20;64.93
4085;BME280;2057;50.858;6.572;2023-07-08T00:02:47;100397.91;;;22.11;64.97
4085;BME280;2057;50.858;6.572;2023-07-08T00:05:16;100395.28;;;22.13;66.19
4085;BME280;2057;50.858;6.572;2023-07-08T00:07:42;100391.00;;;22.01;66.84
4085;BME280;2057;50.858;6.572;2023-07-08T00:12:42;100384.09;;;21.92;68.41
4085;BME280;2057;50.858;6.572;2023-07-08T00:15:08;100398.72;;;21.60;71.11
4085;BME280;2057;50.858;6.572;2023-07-08T00:17:34;100396.91;;;21.52;70.67
4085;BME280;2057;50.858;6.572;2023-07-08T00:20:10;100392.56;;;21.29;72.41
4085;BME280;2057;50.858;6.572;2023-07-08T00:22:39;100391.69;;;21.33;71.82
4085;BME280;2057;50.858;6.572;2023-07-08T00:25:06;100387.38;;;21.21;71.65
4085;BME280;2057;50.858;6.572;2023-07-08T00:27:32;100392.56;;;21.23;70.63
4085;BME280;2057;50.858;6.572;2023-07-08T00:29:58;100383.94;;;21.22;69.08
4085;BME280;2057;50.858;6.572;2023-07-08T00:32:25;100390.06;;;21.52;68.15
4085;BME280;2057;50.858;6.572;2023-07-08T00:34:50;100389.16;;;21.52;66.30
4085;BME280;2057;50.858;6.572;2023-07-08T00:37:16;100391.75;;;21.56;66.75
4085;BME280;2057;50.858;6.572;2023-07-08T00:39:41;100378.06;;;21.76;64.38
4085;BME280;2057;50.858;6.572;2023-07-08T00:42:18;100376.34;;;21.87;63.92
4085;BME280;2057;50.858;6.572;2023-07-08T00:44:44;100374.63;;;21.71;66.88
4085;BME280;2057;50.858;6.572;2023-07-08T00:47:11;100373.75;;;21.80;65.32
4085;BME280;2057;50.858;6.572;2023-07-08T00:49:56;100366.00;;;21.73;66.59
4085;BME280;2057;50.858;6.572;2023-07-08T00:52:27;100362.53;;;21.63;66.14
4085;BME280;2057;50.858;6.572;2023-07-08T00:54:55;100367.69;;;21.63;65.06
4085;BME280;2057;50.858;6.572;2023-07-08T00:57:25;100372.78;;;21.33;64.69
4085;BME280;2057;50.858;6.572;2023-07-08T00:59:59;100372.72;;;21.17;65.08
4085;BME280;2057;50.858;6.572;2023-07-08T01:02:29;100372.63;;;20.92;66.77
4085;BME280;2057;50.858;6.572;2023-07-08T01:05:02;100373.44;;;20.76;68.66
4085;BME280;2057;50.858;6.572;2023-07-08T01:07:30;100366.44;;;20.61;69.97
4085;BME280;2057;50.858;6.572;2023-07-08T01:10:02;100359.66;;;20.78;69.66
4085;BME280;2057;50.858;6.572;2023-07-08T01:12:35;100375.19;;;20.91;69.61
4085;BME280;2057;50.858;6.572;2023-07-08T01:15:02;100372.34;;;20.46;70.25
4085;BME280;2057;50.858;6.572;2023-07-08T01:17:29;100376.69;;;20.50;70.91
4085;BME280;2057;50.858;6.572;2023-07-08T01:20:02;100373.19;;;20.43;70.94
4085;BME280;2057;50.858;6.572;2023-07-08T01:22:34;100369.63;;;20.27;72.69
4085;BME280;2057;50.858;6.572;2023-07-08T01:25:00;100360.16;;;20.23;73.11
4085;BME280;2057;50.858;6.572;2023-07-08T01:27:34;100367.09;;;20.30;73.41
4085;BME280;2057;50.858;6.572;2023-07-08T01:30:02;100363.56;;;20.19;74.12
4085;BME280;2057;50.858;6.572;2023-07-08T01:32:28;100358.38;;;20.13;74.85
4085;BME280;2057;50.858;6.572;2023-07-08T01:34:57;100352.47;;;20.31;73.70
4085;BME280;2057;50.858;6.572;2023-07-08T01:37:48;100350.91;;;20.59;73.25
4085;BME280;2057;50.858;6.572;2023-07-08T01:42:44;100353.53;;;20.62;72.87
4085;BME280;2057;50.858;6.572;2023-07-08T01:45:14;100355.19;;;20.54;71.44
4085;BME280;2057;50.858;6.572;2023-07-08T01:47:47;100355.28;;;20.66;70.77
4085;BME280;2057;50.858;6.572;2023-07-08T01:50:14;100351.63;;;20.30;71.49
4085;BME280;2057;50.858;6.572;2023-07-08T01:52:42;100352.25;;;20.03;72.96
4085;BME280;2057;50.858;6.572;2023-07-08T01:55:08;100353.22;;;20.11;73.72
4085;BME280;2057;50.858;6.572;2023-07-08T01:57:33;100349.84;;;20.23;72.04
4085;BME280;2057;50.858;6.572;2023-07-08T01:59:58;100342.97;;;20.24;72.71
4085;BME280;2057;50.858;6.572;2023-07-08T02:02:24;100342.88;;;20.10;73.42
4085;BME280;2057;50.858;6.572;2023-07-08T02:04:50;100333.38;;;20.04;74.01
4085;BME280;2057;50.858;6.572;2023-07-08T02:07:16;100332.53;;;20.02;73.89
4085;BME280;2057;50.858;6.572;2023-07-08T02:09:41;100328.28;;;20.13;72.99
4085;BME280;2057;50.858;6.572;2023-07-08T02:12:07;100327.34;;;19.99;73.85
4085;BME280;2057;50.858;6.572;2023-07-08T02:14:32;100328.19;;;19.98;73.57
4085;BME280;2057;50.858;6.572;2023-07-08T02:16:57;100317.00;;;19.94;73.40
4085;BME280;2057;50.858;6.572;2023-07-08T02:19:24;100317.88;;;19.98;72.84
4085;BME280;2057;50.858;6.572;2023-07-08T02:21:52;100320.47;;;20.02;72.94
4085;BME280;2057;50.858;6.572;2023-07-08T02:24:18;100327.25;;;19.89;73.29
4085;BME280;2057;50.858;6.572;2023-07-08T02:26:43;100327.94;;;19.73;72.97
4085;BME280;2057;50.858;6.572;2023-07-08T02:29:08;100336.47;;;19.67;73.67
4085;BME280;2057;50.858;6.572;2023-07-08T02:31:34;100332.75;;;19.34;75.57
4085;BME280;2057;50.858;6.572;2023-07-08T02:33:59;100324.84;;;19.19;76.71
4085;BME280;2057;50.858;6.572;2023-07-08T02:36:27;100319.97;;;19.47;75.79
4085;BME280;2057;50.858;6.572;2023-07-08T02:38:52;100323.56;;;19.61;75.17
4085;BME280;2057;50.858;6.572;2023-07-08T02:41:18;100316.75;;;19.69;74.70
4085;BME280;2057;50.858;6.572;2023-07-08T02:43:43;100324.53;;;19.75;75.04
4085;BME280;2057;50.858;6.572;2023-07-08T02:46:09;100321.94;;;19.72;74.71
4085;BME280;2057;50.858;6.572;2023-07-08T02:48:34;100326.09;;;19.58;75.59
4085;BME280;2057;50.858;6.572;2023-07-08T02:51:03;100326.19;;;19.67;75.25
4085;BME280;2057;50.858;6.572;2023-07-08T02:53:29;100325.41;;;19.78;74.31
4085;BME280;2057;50.858;6.572;2023-07-08T02:55:55;100337.22;;;19.54;74.17
4085;BME280;2057;50.858;6.572;2023-07-08T02:58:20;100341.16;;;19.18;76.16
4085;BME280;2057;50.858;6.572;2023-07-08T03:00:54;100339.69;;;18.72;78.55
4085;BME280;2057;50.858;6.572;2023-07-08T03:03:20;100340.47;;;18.65;79.45
4085;BME280;2057;50.858;6.572;2023-07-08T03:06:01;100344.00;;;18.72;80.12
4085;BME280;2057;50.858;6.572;2023-07-08T03:08:28;100338.41;;;19.02;79.58
4085;BME280;2057;50.858;6.572;2023-07-08T03:10:55;100337.41;;;18.92;79.46
4085;BME280;2057;50.858;6.572;2023-07-08T03:13:21;100344.34;;;18.96;78.03
4085;BME280;2057;50.858;6.572;2023-07-08T03:15:47;100341.13;;;18.52;78.61
4085;BME280;2057;50.858;6.572;2023-07-08T03:18:15;100334.91;;;18.36;80.03
4085;BME280;2057;50.858;6.572;2023-07-08T03:20:41;100347.84;;;18.40;81.65
4085;BME280;2057;50.858;6.572;2023-07-08T03:23:10;100338.06;;;18.16;83.14
4085;BME280;2057;50.858;6.572;2023-07-08T03:25:36;100337.97;;;18.10;82.93
4085;BME280;2057;50.858;6.572;2023-07-08T03:28:02;100324.97;;;18.02;85.17
4085;BME280;2057;50.858;6.572;2023-07-08T03:30:30;100333.34;;;17.92;84.93
4085;BME280;2057;50.858;6.572;2023-07-08T03:32:55;100328.69;;;17.69;85.03
4085;BME280;2057;50.858;6.572;2023-07-08T03:35:21;100338.81;;;17.60;86.36
4085;BME280;2057;50.858;6.572;2023-07-08T03:37:47;100335.06;;;17.42;87.51
4085;BME280;2057;50.858;6.572;2023-07-08T03:40:13;100336.13;;;17.53;86.49
4085;BME280;2057;50.858;6.572;2023-07-08T03:42:38;100338.72;;;17.55;86.76
4085;BME280;2057;50.858;6.572;2023-07-08T03:45:04;100349.91;;;17.59;86.13
4085;BME280;2057;50.858;6.572;2023-07-08T03:47:30;100350.09;;;17.69;85.81
4085;BME280;2057;50.858;6.572;2023-07-08T03:49:55;100353.53;;;17.68;84.99
4085;BME280;2057;50.858;6.572;2023-07-08T03:52:20;100357.34;;;17.94;84.25
4085;BME280;2057;50.858;6.572;2023-07-08T03:54:46;100347.22;;;18.00;83.28
4085;BME280;2057;50.858;6.572;2023-07-08T03:57:12;100348.38;;;18.19;82.78
4085;BME280;2057;50.858;6.572;2023-07-08T03:59:37;100357.16;;;18.33;81.79
4085;BME280;2057;50.858;6.572;2023-07-08T04:02:03;100355.13;;;18.11;83.11
4085;BME280;2057;50.858;6.572;2023-07-08T04:04:28;100351.66;;;18.09;82.81
4085;BME280;2057;50.858;6.572;2023-07-08T04:06:54;100346.66;;;18.19;81.84
4085;BME280;2057;50.858;6.572;2023-07-08T04:09:20;100348.69;;;18.41;80.85
4085;BME280;2057;50.858;6.572;2023-07-08T04:11:45;100348.00;;;18.51;79.54
4085;BME280;2057;50.858;6.572;2023-07-08T04:14:11;100342.72;;;18.43;78.83
4085;BME280;2057;50.858;6.572;2023-07-08T04:16:44;100342.84;;;18.53;79.75
4085;BME280;2057;50.858;6.572;2023-07-08T04:19:12;100343.75;;;18.56;79.78
4085;BME280;2057;50.858;6.572;2023-07-08T04:21:40;100346.44;;;18.64;80.28
4085;BME280;2057;50.858;6.572;2023-07-08T04:24:09;100353.06;;;18.46;81.18
4085;BME280;2057;50.858;6.572;2023-07-08T04:26:37;100359.66;;;18.29;81.70
4085;BME280;2057;50.858;6.572;2023-07-08T04:29:11;100357.00;;;18.23;81.84
4085;BME280;2057;50.858;6.572;2023-07-08T04:31:36;100359.59;;;18.26;82.54
4085;BME280;2057;50.858;6.572;2023-07-08T04:34:02;100352.00;;;18.32;81.37
4085;BME280;2057;50.858;6.572;2023-07-08T04:36:27;100353.63;;;18.27;82.22
4085;BME280;2057;50.858;6.572;2023-07-08T04:38:52;100357.38;;;18.49;81.05
4085;BME280;2057;50.858;6.572;2023-07-08T04:41:18;100351.13;;;18.30;81.46
4085;BME280;2057;50.858;6.572;2023-07-08T04:43:43;100353.97;;;18.48;80.35
4085;BME280;2057;50.858;6.572;2023-07-08T04:46:37;100362.56;;;18.50;79.53
4085;BME280;2057;50.858;6.572;2023-07-08T04:49:07;100362.66;;;18.60;79.59
4085;BME280;2057;50.858;6.572;2023-07-08T04:51:35;100369.66;;;18.70;78.13
4085;BME280;2057;50.858;6.572;2023-07-08T04:54:01;100372.41;;;18.83;76.91
4085;BME280;2057;50.858;6.572;2023-07-08T04:56:39;100364.00;;;18.93;75.20
4085;BME280;2057;50.858;6.572;2023-07-08T04:59:08;100362.53;;;19.13;74.69
4085;BME280;2057;50.858;6.572;2023-07-08T05:01:34;100365.22;;;19.21;74.88
4085;BME280;2057;50.858;6.572;2023-07-08T05:04:02;100370.41;;;19.27;74.47
4085;BME280;2057;50.858;6.572;2023-07-08T05:06:30;100369.72;;;19.42;73.61
4085;BME280;2057;50.858;6.572;2023-07-08T05:08:56;100365.56;;;19.55;72.98
4085;BME280;2057;50.858;6.572;2023-07-08T05:11:24;100370.94;;;19.82;71.57
4085;BME280;2057;50.858;6.572;2023-07-08T05:13:49;100363.09;;;19.66;71.82
4085;BME280;2057;50.858;6.572;2023-07-08T05:16:15;100370.03;;;19.73;71.80
4085;BME280;2057;50.858;6.572;2023-07-08T05:18:40;100362.41;;;19.84;70.82
4085;BME280;2057;50.858;6.572;2023-07-08T05:21:05;100365.91;;;19.91;70.83
4085;BME280;2057;50.858;6.572;2023-07-08T05:23:33;100362.50;;;19.90;71.11
4085;BME280;2057;50.858;6.572;2023-07-08T05:26:00;100361.72;;;20.01;71.13
4085;BME280;2057;50.858;6.572;2023-07-08T05:28:26;100373.84;;;20.13;71.33
4085;BME280;2057;50.858;6.572;2023-07-08T05:30:54;100366.94;;;20.12;70.91
4085;BME280;2057;50.858;6.572;2023-07-08T05:33:28;100362.69;;;20.15;71.39
4085;BME280;2057;50.858;6.572;2023-07-08T05:35:54;100363.56;;;20.19;72.52
4085;BME280;2057;50.858;6.572;2023-07-08T05:38:20;100370.44;;;20.20;69.77
4085;BME280;2057;50.858;6.572;2023-07-08T05:40:57;100373.97;;;20.33;68.73
4085;BME280;2057;50.858;6.572;2023-07-08T05:43:24;100380.81;;;20.26;69.72
4085;BME280;2057;50.858;6.572;2023-07-08T05:45:50;100373.94;;;20.28;69.19
4085;BME280;2057;50.858;6.572;2023-07-08T05:48:15;100380.06;;;20.41;71.97
4085;BME280;2057;50.858;6.572;2023-07-08T05:50:41;100386.81;;;20.25;77.46
4085;BME280;2057;50.858;6.572;2023-07-08T05:53:10;100398.69;;;20.06;79.47
4085;BME280;2057;50.858;6.572;2023-07-08T05:55:35;100412.97;;;19.74;84.44
4085;BME280;2057;50.858;6.572;2023-07-08T05:58:01;100397.41;;;19.62;91.39
4085;BME280;2057;50.858;6.572;2023-07-08T06:00:26;100401.63;;;18.85;99.13
4085;BME280;2057;50.858;6.572;2023-07-08T06:02:52;100381.94;;;18.90;100.00
4085;BME280;2057;50.858;6.572;2023-07-08T06:05:17;100356.91;;;18.76;99.18
4085;BME280;2057;50.858;6.572;2023-07-08T06:07:43;100345.63;;;18.66;100.00
4085;BME280;2057;50.858;6.572;2023-07-08T06:10:08;100321.22;;;19.01;99.75
4085;BME280;2057;50.858;6.572;2023-07-08T06:12:33;100313.56;;;19.95;94.17
4085;BME280;2057;50.858;6.572;2023-07-08T06:14:59;100327.34;;;20.00;94.84
4085;BME280;2057;50.858;6.572;2023-07-08T06:17:24;100333.06;;;18.88;95.44
4085;BME280;2057;50.858;6.572;2023-07-08T06:19:50;100330.84;;;18.50;98.25
4085;BME280;2057;50.858;6.572;2023-07-08T06:22:15;100337.81;;;18.59;96.99
4085;BME280;2057;50.858;6.572;2023-07-08T06:24:41;100350.31;;;18.94;96.75
4085;BME280;2057;50.858;6.572;2023-07-08T06:27:06;100344.91;;;18.78;96.67
4085;BME280;2057;50.858;6.572;2023-07-08T06:29:33;100342.09;;;18.60;96.26
4085;BME280;2057;50.858;6.572;2023-07-08T06:31:59;100336.94;;;18.57;95.63
4085;BME280;2057;50.858;6.572;2023-07-08T06:34:24;100336.94;;;18.57;96.53
4085;BME280;2057;50.858;6.572;2023-07-08T06:36:50;100341.88;;;18.43;100.00
4085;BME280;2057;50.858;6.572;2023-07-08T06:39:16;100341.94;;;18.49;99.63
4085;BME280;2057;50.858;6.572;2023-07-08T06:41:42;100328.38;;;18.59;98.15
4085;BME280;2057;50.858;6.572;2023-07-08T06:44:07;100331.03;;;18.64;95.89
4085;BME280;2057;50.858;6.572;2023-07-08T06:46:35;100328.84;;;18.93;96.11
4085;BME280;2057;50.858;6.572;2023-07-08T06:49:01;100338.28;;;18.93;96.05
4085;BME280;2057;50.858;6.572;2023-07-08T06:51:26;100344.34;;;18.96;96.46
4085;BME280;2057;50.858;6.572;2023-07-08T06:53:52;100356.31;;;18.96;99.32
4085;BME280;2057;50.858;6.572;2023-07-08T06:56:17;100358.63;;;18.77;100.00
4085;BME280;2057;50.858;6.572;2023-07-08T06:58:43;100346.25;;;19.16;97.59
4085;BME280;2057;50.858;6.572;2023-07-08T07:01:11;100366.22;;;19.34;100.00
4085;BME280;2057;50.858;6.572;2023-07-08T07:03:37;100367.31;;;19.59;99.68
4085;BME280;2057;50.858;6.572;2023-07-08T07:06:03;100365.06;;;19.92;97.67
4085;BME280;2057;50.858;6.572;2023-07-08T07:08:28;100354.91;;;20.11;95.36
4085;BME280;2057;50.858;6.572;2023-07-08T07:10:56;100356.72;;;20.22;96.30
4085;BME280;2057;50.858;6.572;2023-07-08T07:13:23;100355.09;;;20.32;96.78
4085;BME280;2057;50.858;6.572;2023-07-08T07:15:49;100361.97;;;20.36;96.27
4085;BME280;2057;50.858;6.572;2023-07-08T07:18:16;100373.03;;;20.18;95.25
4085;BME280;2057;50.858;6.572;2023-07-08T07:20:48;100367.00;;;20.15;98.08
4085;BME280;2057;50.858;6.572;2023-07-08T07:23:15;100363.78;;;20.50;95.99
4085;BME280;2057;50.858;6.572;2023-07-08T07:25:40;100372.50;;;20.72;95.86
4085;BME280;2057;50.858;6.572;2023-07-08T07:28:06;100368.28;;;20.82;94.84
4085;BME280;2057;50.858;6.572;2023-07-08T07:30:31;100372.63;;;20.92;96.69
4085;BME280;2057;50.858;6.572;2023-07-08T07:32:59;100374.47;;;21.18;96.02
4085;BME280;2057;50.858;6.572;2023-07-08T07:35:27;100371.06;;;21.30;95.97
4085;BME280;2057;50.858;6.572;2023-07-08T07:37:52;100372.78;;;21.42;94.07
4085;BME280;2057;50.858;6.572;2023-07-08T07:40:18;100379.75;;;21.58;92.13
4085;BME280;2057;50.858;6.572;2023-07-08T07:42:45;100373.72;;;21.66;91.91
4085;BME280;2057;50.858;6.572;2023-07-08T07:45:12;100374.63;;;21.92;90.29
4085;BME280;2057;50.858;6.572;2023-07-08T07:47:37;100367.72;;;22.13;90.73
4085;BME280;2057;50.858;6.572;2023-07-08T07:50:04;100374.59;;;22.17;91.29
4085;BME280;2057;50.858;6.572;2023-07-08T07:52:30;100380.66;;;22.32;92.09
4085;BME280;2057;50.858;6.572;2023-07-08T07:54:58;100384.94;;;22.39;90.43
4085;BME280;2057;50.858;6.572;2023-07-08T07:57:24;100380.63;;;22.61;88.88
4085;BME280;2057;50.858;6.572;2023-07-08T07:59:49;100378.91;;;22.52;87.85
4085;BME280;2057;50.858;6.572;2023-07-08T08:02:16;100379.75;;;22.61;87.67
4085;BME280;2057;50.858;6.572;2023-07-08T08:04:41;100372.84;;;22.70;88.37
4085;BME280;2057;50.858;6.572;2023-07-08T08:07:06;100377.94;;;22.91;87.94
4085;BME280;2057;50.858;6.572;2023-07-08T08:09:32;100377.88;;;23.01;86.97
4085;BME280;2057;50.858;6.572;2023-07-08T08:11:57;100380.41;;;23.25;84.02
4085;BME280;2057;50.858;6.572;2023-07-08T08:14:22;100372.53;;;23.43;79.41
4085;BME280;2057;50.858;6.572;2023-07-08T08:16:50;100375.91;;;23.58;77.88
4085;BME280;2057;50.858;6.572;2023-07-08T08:19:15;100377.56;;;23.68;75.77
4085;BME280;2057;50.858;6.572;2023-07-08T08:21:40;100365.25;;;23.92;71.80
4085;BME280;2057;50.858;6.572;2023-07-08T08:24:06;100353.13;;;24.03;71.49
4085;BME280;2057;50.858;6.572;2023-07-08T08:26:31;100349.53;;;24.15;73.34
4085;BME280;2057;50.858;6.572;2023-07-08T08:28:57;100356.28;;;24.33;73.61
4085;BME280;2057;50.858;6.572;2023-07-08T08:31:22;100366.56;;;24.44;72.15
4085;BME280;2057;50.858;6.572;2023-07-08T08:33:47;100359.56;;;24.51;73.51
4085;BME280;2057;50.858;6.572;2023-07-08T08:36:13;100368.06;;;24.65;73.33
4085;BME280;2057;50.858;6.572;2023-07-08T08:38:45;100367.94;;;24.78;70.22
4085;BME280;2057;50.858;6.572;2023-07-08T08:41:17;100373.19;;;24.74;69.75
4085;BME280;2057;50.858;6.572;2023-07-08T08:43:47;100373.72;;;25.00;69.20
4085;BME280;2057;50.858;6.572;2023-07-08T08:46:34;100377.91;;;25.12;64.28
4085;BME280;2057;50.858;6.572;2023-07-08T08:51:44;100388.13;;;25.27;65.99
4085;BME280;2057;50.858;6.572;2023-07-08T08:54:10;100394.78;;;25.47;63.60
4085;BME280;2057;50.858;6.572;2023-07-08T08:56:48;100393.84;;;25.52;64.56
4085;BME280;2057;50.858;6.572;2023-07-08T09:02:02;100383.22;;;25.70;65.00
4085;BME280;2057;50.858;6.572;2023-07-08T09:04:39;100383.13;;;25.74;66.44
4085;BME280;2057;50.858;6.572;2023-07-08T09:07:14;100383.72;;;25.92;64.13
4085;BME280;2057;50.858;6.572;2023-07-08T09:12:25;100374.66;;;26.18;63.00
4085;BME280;2057;50.858;6.572;2023-07-08T09:14:52;100375.28;;;26.30;61.89
4085;BME280;2057;50.858;6.572;2023-07-08T09:17:23;100368.88;;;26.49;61.63
4085;BME280;2057;50.858;6.572;2023-07-08T09:20:11;100363.56;;;26.53;62.49
4085;BME280;2057;50.858;6.572;2023-07-08T09:23:01;100367.63;;;26.67;62.32
4085;BME280;2057;50.858;6.572;2023-07-08T09:25:33;100369.84;;;26.88;60.74
4085;BME280;2057;50.858;6.572;2023-07-08T09:28:01;100361.06;;;26.92;58.26
4085;BME280;2057;50.858;6.572;2023-07-08T09:30:29;100359.16;;;27.02;60.25
4085;BME280;2057;50.858;6.572;2023-07-08T09:32:56;100356.16;;;27.19;55.64
4085;BME280;2057;50.858;6.572;2023-07-08T09:35:39;100349.41;;;27.50;57.31
4085;BME280;2057;50.858;6.572;2023-07-08T09:38:14;100337.59;;;27.71;56.04
4085;BME280;2057;50.858;6.572;2023-07-08T09:40:46;100334.28;;;27.99;57.05
4085;BME280;2057;50.858;6.572;2023-07-08T09:45:47;100337.59;;;28.06;52.92
4085;BME280;2057;50.858;6.572;2023-07-08T09:48:34;100330.16;;;28.25;51.76
4085;BME280;2057;50.858;6.572;2023-07-08T09:51:00;100338.63;;;28.35;50.94
4085;BME280;2057;50.858;6.572;2023-07-08T09:53:26;100328.56;;;28.52;51.10
4085;BME280;2057;50.858;6.572;2023-07-08T09:55:53;100334.06;;;28.73;53.46
4085;BME280;2057;50.858;6.572;2023-07-08T09:58:24;100336.75;;;28.71;49.30
4085;BME280;2057;50.858;6.572;2023-07-08T10:00:59;100333.19;;;28.74;48.48
4085;BME280;2057;50.858;6.572;2023-07-08T10:03:28;100326.09;;;28.77;50.74
4085;BME280;2057;50.858;6.572;2023-07-08T10:05:57;100338.31;;;28.77;48.80
4085;BME280;2057;50.858;6.572;2023-07-08T10:08:25;100333.41;;;28.96;50.13
4085;BME280;2057;50.858;6.572;2023-07-08T10:11:02;100325.19;;;29.08;49.42
4085;BME280;2057;50.858;6.572;2023-07-08T10:13:37;100331.00;;;29.18;49.44
4085;BME280;2057;50.858;6.572;2023-07-08T10:16:26;100325.53;;;29.26;47.96
4085;BME280;2057;50.858;6.572;2023-07-08T10:18:56;100332.31;;;29.33;49.36
4085;BME280;2057;50.858;6.572;2023-07-08T10:24:30;100326.56;;;29.49;46.79
4085;BME280;2057;50.858;6.572;2023-07-08T10:27:18;100324.16;;;29.69;45.95
4085;BME280;2057;50.858;6.572;2023-07-08T10:30:03;100324.84;;;29.74;45.66
4085;BME280;2057;50.858;6.572;2023-07-08T10:32:53;100326.41;;;29.80;44.82
4085;BME280;2057;50.858;6.572;2023-07-08T10:35:27;100318.41;;;29.85;42.14
4085;BME280;2057;50.858;6.572;2023-07-08T10:43:27;100322.50;;;30.19;43.32
4085;BME280;2057;50.858;6.572;2023-07-08T10:56:43;100325.97;;;30.69;43.79
4085;BME280;2057;50.858;6.572;2023-07-08T11:05:17;100321.13;;;30.58;42.04
4085;BME280;2057;50.858;6.572;2023-07-08T11:07:56;100314.78;;;30.87;42.14
4085;BME280;2057;50.858;6.572;2023-07-08T11:10:32;100325.72;;;30.98;43.16
4085;BME280;2057;50.858;6.572;2023-07-08T11:13:09;100314.84;;;31.08;44.63
4085;BME280;2057;50.858;6.572;2023-07-08T11:18:22;100318.59;;;31.47;43.79
4085;BME280;2057;50.858;6.572;2023-07-08T11:20:55;100319.34;;;31.49;42.71
4085;BME280;2057;50.858;6.572;2023-07-08T11:23:38;100312.53;;;31.67;43.79
4085;BME280;2057;50.858;6.572;2023-07-08T11:26:24;100315.13;;;31.87;43.47
4085;BME280;2057;50.858;6.572;2023-07-08T11:29:01;100312.91;;;31.99;42.27
4085;BME280;2057;50.858;6.572;2023-07-08T11:31:31;100316.06;;;32.07;43.59
4085;BME280;2057;50.858;6.572;2023-07-08T11:33:58;100319.41;;;32.11;43.08
4085;BME280;2057;50.858;6.572;2023-07-08T11:36:25;100318.69;;;32.07;42.37
4085;BME280;2057;50.858;6.572;2023-07-08T11:38:56;100317.88;;;32.05;40.39
4085;BME280;2057;50.858;6.572;2023-07-08T11:41:24;100308.19;;;32.07;42.05
4085;BME280;2057;50.858;6.572;2023-07-08T11:43:58;100311.59;;;32.30;41.96
4085;BME280;2057;50.858;6.572;2023-07-08T11:46:27;100308.56;;;32.18;40.25
4085;BME280;2057;50.858;6.572;2023-07-08T11:49:10;100306.47;;;32.27;43.42
4085;BME280;2057;50.858;6.572;2023-07-08T11:51:39;100310.28;;;32.19;42.12
4085;BME280;2057;50.858;6.572;2023-07-08T11:54:20;100299.03;;;32.36;42.23
4085;BME280;2057;50.858;6.572;2023-07-08T11:57:03;100298.91;;;32.40;40.83
4085;BME280;2057;50.858;6.572;2023-07-08T11:59:32;100290.72;;;32.27;38.53
4085;BME280;2057;50.858;6.572;2023-07-08T12:02:13;100293.63;;;32.40;40.62
4085;BME280;2057;50.858;6.572;2023-07-08T12:04:55;100296.25;;;32.40;39.79
4085;BME280;2057;50.858;6.572;2023-07-08T12:07:48;100297.41;;;32.53;39.31
4085;BME280;2057;50.858;6.572;2023-07-08T12:10:18;100294.91;;;32.69;40.43
4085;BME280;2057;50.858;6.572;2023-07-08T12:12:48;100293.19;;;32.68;39.82
4085;BME280;2057;50.858;6.572;2023-07-08T12:15:22;100301.09;;;32.68;38.99
4085;BME280;2057;50.858;6.572;2023-07-08T12:17:52;100290.34;;;32.73;41.11
4085;BME280;2057;50.858;6.572;2023-07-08T12:20:23;100294.63;;;32.75;40.32
4085;BME280;2057;50.858;6.572;2023-07-08T12:22:50;100289.25;;;32.78;41.37
4085;BME280;2057;50.858;6.572;2023-07-08T12:25:18;100297.72;;;32.85;41.59
4085;BME280;2057;50.858;6.572;2023-07-08T12:27:45;100290.47;;;33.08;41.08
4085;BME280;2057;50.858;6.572;2023-07-08T12:30:12;100290.81;;;33.19;40.32
4085;BME280;2057;50.858;6.572;2023-07-08T12:32:39;100284.38;;;33.07;39.00
4085;BME280;2057;50.858;6.572;2023-07-08T12:35:05;100284.78;;;33.17;39.30
4085;BME280;2057;50.858;6.572;2023-07-08T12:37:33;100279.81;;;33.11;38.90
4085;BME280;2057;50.858;6.572;2023-07-08T12:40:00;100277.66;;;33.19;39.22
4085;BME280;2057;50.858;6.572;2023-07-08T12:42:30;100274.34;;;33.15;38.38
4085;BME280;2057;50.858;6.572;2023-07-08T12:44:58;100271.38;;;33.22;38.68
4085;BME280;2057;50.858;6.572;2023-07-08T12:47:23;100261.38;;;33.47;39.80
4085;BME280;2057;50.858;6.572;2023-07-08T12:49:52;100266.31;;;33.54;40.73
4085;BME280;2057;50.858;6.572;2023-07-08T12:52:23;100270.50;;;33.75;40.30
4085;BME280;2057;50.858;6.572;2023-07-08T12:54:49;100268.63;;;33.60;37.00
4085;BME280;2057;50.858;6.572;2023-07-08T12:57:16;100270.53;;;33.91;37.63
4085;BME280;2057;50.858;6.572;2023-07-08T12:59:43;100267.13;;;34.07;38.15
4085;BME280;2057;50.858;6.572;2023-07-08T13:02:17;100265.97;;;33.95;37.48
4085;BME280;2057;50.858;6.572;2023-07-08T13:04:50;100264.09;;;33.97;37.86
4085;BME280;2057;50.858;6.572;2023-07-08T13:07:27;100260.78;;;34.27;37.17
4085;BME280;2057;50.858;6.572;2023-07-08T13:09:55;100255.31;;;34.30;36.53
4085;BME280;2057;50.858;6.572;2023-07-08T13:12:21;100258.97;;;34.28;36.31
4085;BME280;2057;50.858;6.572;2023-07-08T13:14:48;100256.56;;;34.40;37.74
4085;BME280;2057;50.858;6.572;2023-07-08T13:17:16;100249.91;;;34.65;38.12
4085;BME280;2057;50.858;6.572;2023-07-08T13:19:43;100253.31;;;34.83;38.70
4085;BME280;2057;50.858;6.572;2023-07-08T13:22:15;100255.59;;;34.74;38.17
4085;BME280;2057;50.858;6.572;2023-07-08T13:24:41;100253.50;;;34.96;36.75
4085;BME280;2057;50.858;6.572;2023-07-08T13:27:14;100255.47;;;35.23;36.54
4085;BME280;2057;50.858;6.572;2023-07-08T13:29:41;100257.81;;;35.44;35.86
4085;BME280;2057;50.858;6.572;2023-07-08T13:32:09;100253.31;;;35.60;38.37
4085;BME280;2057;50.858;6.572;2023-07-08T13:34:35;100252.38;;;35.31;37.36
4085;BME280;2057;50.858;6.572;2023-07-08T13:37:00;100253.97;;;35.33;36.14
4085;BME280;2057;50.858;6.572;2023-07-08T13:39:33;100258.25;;;34.42;36.27
4085;BME280;2057;50.858;6.572;2023-07-08T13:42:01;100262.00;;;34.53;36.79
4085;BME280;2057;50.858;6.572;2023-07-08T13:44:27;100261.31;;;34.82;36.73
4085;BME280;2057;50.858;6.572;2023-07-08T13:46:56;100260.47;;;34.97;36.86
4085;BME280;2057;50.858;6.572;2023-07-08T13:49:29;100256.53;;;35.05;37.41
4085;BME280;2057;50.858;6.572;2023-07-08T13:52:07;100260.63;;;34.78;38.28
4085;BME280;2057;50.858;6.572;2023-07-08T13:54:38;100263.38;;;34.93;39.37
4085;BME280;2057;50.858;6.572;2023-07-08T13:57:10;100258.56;;;35.15;37.74
4085;BME280;2057;50.858;6.572;2023-07-08T13:59:36;100258.59;;;35.60;37.83
4085;BME280;2057;50.858;6.572;2023-07-08T14:02:01;100247.28;;;35.58;35.34